sensor_id;sensor_type;location;lat;lon;timestamp;P1;durP1;ratioP1;P2;durP2;ratioP2
2652;SDS011;1336;48.692;9.144;2022-10-12T05:00:40;24.50;;;21.40;;
2652;SDS011;1336;48.692;9.144;2022-10-12T05:01:32;26.10;;;22.05;;
2652;SDS011;1336;48.692;9.144;2022-10-12T05:02:23;24.90;;;21.23;;
2652;SDS011;1336;48.692;9.144;2022-10-12T05:03:15;25.83;;;21.27;;
2652;SDS011;1336;48.692;9.144;2022-10-12T05:04:06;29.23;;;22.03;;
2652;SDS011;1336;48.692;9.144;2022-10-12T05:04:58;23.00;;;20.60;;
2652;SDS011;1336;48.692;9.144;2022-10-12T05:05:49;29.23;;;21.27;;
2652;SDS011;1336;48.692;9.144;2022-10-12T05:06:41;24.45;;;21.85;;
2652;SDS011;1336;48.692;9.144;2022-10-12T05:07:31;27.07;;;21.30;;
2652;SDS011;1336;48.692;9.144;2022-10-12T05:08:23;23.13;;;19.30;;
2652;SDS011;1336;48.692;9.144;2022-10-12T05:09:14;26.65;;;20.52;;
2652;SDS011;1336;48.692;9.144;2022-10-12T05:10:06;27.50;;;20.75;;
2652;SDS011;1336;48.692;9.144;2022-10-12T05:10:58;23.80;;;20.05;;
2652;SDS011;1336;48.692;9.144;2022-10-12T05:11:49;26.20;;;20.25;;
2652;SDS011;1336;48.692;9.144;2022-10-12T05:12:40;25.00;;;19.80;;
2652;SDS011;1336;48.692;9.144;2022-10-12T05:13:32;23.08;;;20.17;;
2652;SDS011;1336;48.692;9.144;2022-10-12T05:14:23;22.90;;;20.43;;
2652;SDS011;1336;48.692;9.144;2022-10-12T05:15:15;25.50;;;21.60;;
2652;SDS011;1336;48.692;9.144;2022-10-12T05:16:07;27.38;;;21.05;;
2652;SDS011;1336;48.692;9.144;2022-10-12T05:16:59;24.75;;;20.13;;
2652;SDS011;1336;48.692;9.144;2022-10-12T05:17:49;22.60;;;20.27;;
2652;SDS011;1336;48.692;9.144;2022-10-12T05:18:41;25.60;;;20.00;;
2652;SDS011;1336;48.692;9.144;2022-10-12T05:19:32;24.17;;;21.60;;
2652;SDS011;1336;48.692;9.144;2022-10-12T05:20:24;23.38;;;20.80;;
2652;SDS011;1336;48.692;9.144;2022-10-12T05:21:15;22.40;;;19.92;;
2652;SDS011;1336;48.692;9.144;2022-10-12T05:22:07;24.08;;;20.73;;
2652;SDS011;1336;48.692;9.144;2022-10-12T05:22:58;23.47;;;20.97;;
2652;SDS011;1336;48.692;9.144;2022-10-12T05:23:49;22.50;;;20.00;;
2652;SDS011;1336;48.692;9.144;2022-10-12T05:24:40;24.20;;;20.20;;
2652;SDS011;1336;48.692;9.144;2022-10-12T05:25:32;26.35;;;21.05;;
2652;SDS011;1336;48.692;9.144;2022-10-12T05:26:24;23.30;;;20.50;;
2652;SDS011;1336;48.692;9.144;2022-10-12T05:27:16;23.35;;;19.90;;
2652;SDS011;1336;48.692;9.144;2022-10-12T05:28:06;23.17;;;20.80;;
2652;SDS011;1336;48.692;9.144;2022-10-12T05:28:58;22.60;;;20.20;;
2652;SDS011;1336;48.692;9.144;2022-10-12T05:29:49;22.53;;;20.00;;
2652;SDS011;1336;48.692;9.144;2022-10-12T05:30:40;23.13;;;20.77;;
2652;SDS011;1336;48.692;9.144;2022-10-12T05:31:32;22.73;;;20.43;;
2652;SDS011;1336;48.692;9.144;2022-10-12T05:32:24;23.95;;;21.45;;
2652;SDS011;1336;48.692;9.144;2022-10-12T05:33:15;26.20;;;21.47;;
2652;SDS011;1336;48.692;9.144;2022-10-12T05:34:07;23.90;;;20.92;;
2652;SDS011;1336;48.692;9.144;2022-10-12T05:34:58;25.13;;;22.67;;
2652;SDS011;1336;48.692;9.144;2022-10-12T05:35:50;22.95;;;20.48;;
2652;SDS011;1336;48.692;9.144;2022-10-12T05:36:40;24.03;;;21.70;;
2652;SDS011;1336;48.692;9.144;2022-10-12T05:37:32;25.83;;;23.13;;
2652;SDS011;1336;48.692;9.144;2022-10-12T05:38:23;24.03;;;21.63;;
2652;SDS011;1336;48.692;9.144;2022-10-12T05:39:14;26.00;;;23.15;;
2652;SDS011;1336;48.692;9.144;2022-10-12T05:40:05;28.40;;;25.50;;
2652;SDS011;1336;48.692;9.144;2022-10-12T05:40:57;27.52;;;24.67;;
2652;SDS011;1336;48.692;9.144;2022-10-12T05:41:48;27.97;;;25.03;;
2652;SDS011;1336;48.692;9.144;2022-10-12T05:42:40;27.38;;;24.48;;
2652;SDS011;1336;48.692;9.144;2022-10-12T05:43:31;28.03;;;25.20;;
2652;SDS011;1336;48.692;9.144;2022-10-12T05:44:22;26.35;;;23.67;;
2652;SDS011;1336;48.692;9.144;2022-10-12T05:45:14;26.50;;;23.90;;
2652;SDS011;1336;48.692;9.144;2022-10-12T05:46:06;28.27;;;25.25;;
2652;SDS011;1336;48.692;9.144;2022-10-12T05:46:58;29.40;;;25.50;;
2652;SDS011;1336;48.692;9.144;2022-10-12T05:47:49;27.63;;;24.92;;
2652;SDS011;1336;48.692;9.144;2022-10-12T05:48:40;34.07;;;30.60;;
2652;SDS011;1336;48.692;9.144;2022-10-12T05:49:32;32.88;;;29.63;;
2652;SDS011;1336;48.692;9.144;2022-10-12T05:50:23;31.90;;;28.73;;
2652;SDS011;1336;48.692;9.144;2022-10-12T05:51:14;30.17;;;27.02;;
2652;SDS011;1336;48.692;9.144;2022-10-12T05:52:05;29.67;;;26.67;;
2652;SDS011;1336;48.692;9.144;2022-10-12T05:52:57;30.20;;;27.13;;
2652;SDS011;1336;48.692;9.144;2022-10-12T05:53:48;31.07;;;28.07;;
2652;SDS011;1336;48.692;9.144;2022-10-12T05:54:39;29.83;;;26.77;;
2652;SDS011;1336;48.692;9.144;2022-10-12T05:55:30;31.63;;;28.47;;
2652;SDS011;1336;48.692;9.144;2022-10-12T05:56:22;29.75;;;26.80;;
2652;SDS011;1336;48.692;9.144;2022-10-12T05:57:13;30.10;;;26.87;;
2652;SDS011;1336;48.692;9.144;2022-10-12T05:58:04;29.38;;;26.48;;
2652;SDS011;1336;48.692;9.144;2022-10-12T05:58:55;27.90;;;25.20;;
2652;SDS011;1336;48.692;9.144;2022-10-12T05:59:47;28.00;;;25.25;;
2652;SDS011;1336;48.692;9.144;2022-10-12T06:00:37;26.87;;;24.03;;
2652;SDS011;1336;48.692;9.144;2022-10-12T06:01:29;28.40;;;25.50;;
2652;SDS011;1336;48.692;9.144;2022-10-12T06:02:21;28.00;;;25.20;;
2652;SDS011;1336;48.692;9.144;2022-10-12T06:03:13;26.38;;;23.63;;
2652;SDS011;1336;48.692;9.144;2022-10-12T06:04:04;24.70;;;22.30;;
2652;SDS011;1336;48.692;9.144;2022-10-12T06:04:56;26.42;;;23.88;;
2652;SDS011;1336;48.692;9.144;2022-10-12T06:05:46;25.60;;;23.00;;
2652;SDS011;1336;48.692;9.144;2022-10-12T06:06:38;27.50;;;23.73;;
2652;SDS011;1336;48.692;9.144;2022-10-12T06:07:29;27.53;;;24.73;;
2652;SDS011;1336;48.692;9.144;2022-10-12T06:08:21;27.27;;;24.55;;
2652;SDS011;1336;48.692;9.144;2022-10-12T06:09:11;27.63;;;24.93;;
2652;SDS011;1336;48.692;9.144;2022-10-12T06:10:04;26.00;;;23.27;;
2652;SDS011;1336;48.692;9.144;2022-10-12T06:10:55;26.52;;;23.85;;
2652;SDS011;1336;48.692;9.144;2022-10-12T06:11:48;26.08;;;23.30;;
2652;SDS011;1336;48.692;9.144;2022-10-12T06:12:39;27.83;;;24.90;;
2652;SDS011;1336;48.692;9.144;2022-10-12T06:13:32;26.38;;;23.77;;
2652;SDS011;1336;48.692;9.144;2022-10-12T06:14:23;26.87;;;24.30;;
2652;SDS011;1336;48.692;9.144;2022-10-12T06:15:14;28.30;;;24.25;;
2652;SDS011;1336;48.692;9.144;2022-10-12T06:16:05;25.50;;;23.00;;
2652;SDS011;1336;48.692;9.144;2022-10-12T06:16:57;26.90;;;24.20;;
2652;SDS011;1336;48.692;9.144;2022-10-12T06:17:49;25.70;;;23.20;;
2652;SDS011;1336;48.692;9.144;2022-10-12T06:18:44;25.92;;;23.23;;
2652;SDS011;1336;48.692;9.144;2022-10-12T06:19:35;25.57;;;22.87;;
2652;SDS011;1336;48.692;9.144;2022-10-12T06:20:27;25.80;;;22.52;;
2652;SDS011;1336;48.692;9.144;2022-10-12T06:21:17;26.47;;;23.77;;
2652;SDS011;1336;48.692;9.144;2022-10-12T06:22:09;26.33;;;23.63;;
2652;SDS011;1336;48.692;9.144;2022-10-12T06:23:00;24.83;;;22.37;;
2652;SDS011;1336;48.692;9.144;2022-10-12T06:23:52;24.48;;;21.98;;
2652;SDS011;1336;48.692;9.144;2022-10-12T06:24:43;24.48;;;22.00;;
2652;SDS011;1336;48.692;9.144;2022-10-12T06:25:34;24.95;;;22.55;;
2652;SDS011;1336;48.692;9.144;2022-10-12T06:26:25;26.60;;;23.90;;
2652;SDS011;1336;48.692;9.144;2022-10-12T06:27:17;25.80;;;23.30;;
2652;SDS011;1336;48.692;9.144;2022-10-12T06:28:09;27.38;;;24.58;;
2652;SDS011;1336;48.692;9.144;2022-10-12T06:29:01;24.15;;;21.60;;
2652;SDS011;1336;48.692;9.144;2022-10-12T06:29:51;26.00;;;23.50;;
2652;SDS011;1336;48.692;9.144;2022-10-12T06:30:43;25.42;;;22.83;;
2652;SDS011;1336;48.692;9.144;2022-10-12T06:31:34;24.48;;;22.08;;
2652;SDS011;1336;48.692;9.144;2022-10-12T06:32:27;25.75;;;23.00;;
2652;SDS011;1336;48.692;9.144;2022-10-12T06:33:19;26.17;;;23.40;;
2652;SDS011;1336;48.692;9.144;2022-10-12T06:34:11;25.80;;;23.05;;
2652;SDS011;1336;48.692;9.144;2022-10-12T06:35:01;25.10;;;22.10;;
2652;SDS011;1336;48.692;9.144;2022-10-12T06:35:54;26.17;;;23.38;;
2652;SDS011;1336;48.692;9.144;2022-10-12T06:36:45;25.23;;;22.70;;
2652;SDS011;1336;48.692;9.144;2022-10-12T06:37:36;25.75;;;23.05;;
2652;SDS011;1336;48.692;9.144;2022-10-12T06:38:27;26.03;;;23.53;;
2652;SDS011;1336;48.692;9.144;2022-10-12T06:39:19;27.42;;;24.63;;
2652;SDS011;1336;48.692;9.144;2022-10-12T06:40:11;27.73;;;24.92;;
2652;SDS011;1336;48.692;9.144;2022-10-12T06:41:02;26.52;;;23.73;;
2652;SDS011;1336;48.692;9.144;2022-10-12T06:41:53;27.07;;;24.37;;
2652;SDS011;1336;48.692;9.144;2022-10-12T06:42:45;27.85;;;25.05;;
2652;SDS011;1336;48.692;9.144;2022-10-12T06:43:37;25.65;;;23.13;;
2652;SDS011;1336;48.692;9.144;2022-10-12T06:44:29;26.23;;;23.77;;
2652;SDS011;1336;48.692;9.144;2022-10-12T06:45:21;26.83;;;24.10;;
2652;SDS011;1336;48.692;9.144;2022-10-12T06:46:13;26.58;;;23.88;;
2652;SDS011;1336;48.692;9.144;2022-10-12T06:47:04;27.00;;;24.23;;
2652;SDS011;1336;48.692;9.144;2022-10-12T06:47:56;26.90;;;24.20;;
2652;SDS011;1336;48.692;9.144;2022-10-12T06:48:48;27.45;;;24.55;;
2652;SDS011;1336;48.692;9.144;2022-10-12T06:49:40;28.20;;;25.40;;
2652;SDS011;1336;48.692;9.144;2022-10-12T06:50:31;26.83;;;24.27;;
2652;SDS011;1336;48.692;9.144;2022-10-12T06:51:22;25.90;;;23.20;;
2652;SDS011;1336;48.692;9.144;2022-10-12T06:52:13;27.87;;;24.87;;
2652;SDS011;1336;48.692;9.144;2022-10-12T06:53:05;26.38;;;23.98;;
2652;SDS011;1336;48.692;9.144;2022-10-12T06:53:55;27.17;;;24.57;;
2652;SDS011;1336;48.692;9.144;2022-10-12T06:54:47;27.42;;;24.58;;
2652;SDS011;1336;48.692;9.144;2022-10-12T06:55:38;28.00;;;25.03;;
2652;SDS011;1336;48.692;9.144;2022-10-12T06:56:30;27.40;;;24.60;;
2652;SDS011;1336;48.692;9.144;2022-10-12T06:57:21;27.40;;;24.33;;
2652;SDS011;1336;48.692;9.144;2022-10-12T06:58:12;26.77;;;24.17;;
2652;SDS011;1336;48.692;9.144;2022-10-12T06:59:03;26.57;;;23.60;;
2652;SDS011;1336;48.692;9.144;2022-10-12T06:59:55;26.85;;;24.15;;
2652;SDS011;1336;48.692;9.144;2022-10-12T07:00:46;26.30;;;23.50;;
2652;SDS011;1336;48.692;9.144;2022-10-12T07:01:37;25.77;;;23.23;;
2652;SDS011;1336;48.692;9.144;2022-10-12T07:02:28;24.30;;;21.97;;
2652;SDS011;1336;48.692;9.144;2022-10-12T07:03:20;25.33;;;22.83;;
2652;SDS011;1336;48.692;9.144;2022-10-12T07:04:12;25.50;;;22.80;;
2652;SDS011;1336;48.692;9.144;2022-10-12T07:05:04;24.77;;;22.38;;
2652;SDS011;1336;48.692;9.144;2022-10-12T07:06:03;25.25;;;22.15;;
2652;SDS011;1336;48.692;9.144;2022-10-12T07:06:56;25.30;;;22.88;;
2652;SDS011;1336;48.692;9.144;2022-10-12T07:07:47;26.73;;;24.03;;
2652;SDS011;1336;48.692;9.144;2022-10-12T07:08:39;25.15;;;22.73;;
2652;SDS011;1336;48.692;9.144;2022-10-12T07:09:30;26.13;;;23.42;;
2652;SDS011;1336;48.692;9.144;2022-10-12T07:10:21;25.88;;;23.35;;
2652;SDS011;1336;48.692;9.144;2022-10-12T07:11:13;26.63;;;24.00;;
2652;SDS011;1336;48.692;9.144;2022-10-12T07:12:06;26.23;;;23.60;;
2652;SDS011;1336;48.692;9.144;2022-10-12T07:12:56;26.17;;;23.37;;
2652;SDS011;1336;48.692;9.144;2022-10-12T07:13:48;28.10;;;25.13;;
2652;SDS011;1336;48.692;9.144;2022-10-12T07:14:40;26.02;;;23.02;;
2652;SDS011;1336;48.692;9.144;2022-10-12T07:15:31;26.55;;;23.73;;
2652;SDS011;1336;48.692;9.144;2022-10-12T07:16:22;25.80;;;23.20;;
2652;SDS011;1336;48.692;9.144;2022-10-12T07:17:14;25.77;;;23.25;;
2652;SDS011;1336;48.692;9.144;2022-10-12T07:18:05;26.00;;;23.37;;
2652;SDS011;1336;48.692;9.144;2022-10-12T07:18:56;24.15;;;21.80;;
2652;SDS011;1336;48.692;9.144;2022-10-12T07:19:48;27.00;;;24.10;;
2652;SDS011;1336;48.692;9.144;2022-10-12T07:20:40;26.33;;;23.50;;
2652;SDS011;1336;48.692;9.144;2022-10-12T07:21:31;26.43;;;23.83;;
2652;SDS011;1336;48.692;9.144;2022-10-12T07:22:22;26.23;;;23.67;;
2652;SDS011;1336;48.692;9.144;2022-10-12T07:23:13;26.63;;;23.20;;
2652;SDS011;1336;48.692;9.144;2022-10-12T07:24:05;26.65;;;22.60;;
2652;SDS011;1336;48.692;9.144;2022-10-12T07:24:56;24.98;;;22.42;;
2652;SDS011;1336;48.692;9.144;2022-10-12T07:25:48;25.85;;;23.10;;
2652;SDS011;1336;48.692;9.144;2022-10-12T07:26:39;27.63;;;24.83;;
2652;SDS011;1336;48.692;9.144;2022-10-12T07:27:30;26.13;;;23.63;;
2652;SDS011;1336;48.692;9.144;2022-10-12T07:28:21;25.40;;;22.80;;
2652;SDS011;1336;48.692;9.144;2022-10-12T07:29:13;25.35;;;22.85;;
2652;SDS011;1336;48.692;9.144;2022-10-12T07:30:05;28.45;;;23.55;;
2652;SDS011;1336;48.692;9.144;2022-10-12T07:31:00;24.65;;;21.70;;
2652;SDS011;1336;48.692;9.144;2022-10-12T07:31:52;30.50;;;25.35;;
2652;SDS011;1336;48.692;9.144;2022-10-12T07:32:43;29.23;;;26.10;;
2652;SDS011;1336;48.692;9.144;2022-10-12T07:33:36;28.35;;;24.15;;
2652;SDS011;1336;48.692;9.144;2022-10-12T07:34:28;26.83;;;23.92;;
2652;SDS011;1336;48.692;9.144;2022-10-12T07:35:21;29.02;;;24.80;;
2652;SDS011;1336;48.692;9.144;2022-10-12T07:36:13;30.23;;;26.15;;
2652;SDS011;1336;48.692;9.144;2022-10-12T07:37:04;28.77;;;25.70;;
2652;SDS011;1336;48.692;9.144;2022-10-12T07:37:56;27.50;;;24.17;;
2652;SDS011;1336;48.692;9.144;2022-10-12T07:38:46;23.90;;;21.30;;
2652;SDS011;1336;48.692;9.144;2022-10-12T07:39:38;26.80;;;23.90;;
2652;SDS011;1336;48.692;9.144;2022-10-12T07:40:30;26.77;;;23.42;;
2652;SDS011;1336;48.692;9.144;2022-10-12T07:41:22;25.88;;;23.10;;
2652;SDS011;1336;48.692;9.144;2022-10-12T07:42:13;30.23;;;23.07;;
2652;SDS011;1336;48.692;9.144;2022-10-12T07:43:05;27.33;;;24.42;;
2652;SDS011;1336;48.692;9.144;2022-10-12T07:43:56;28.80;;;25.10;;
2652;SDS011;1336;48.692;9.144;2022-10-12T07:44:47;28.40;;;25.40;;
2652;SDS011;1336;48.692;9.144;2022-10-12T07:45:38;26.43;;;23.50;;
2652;SDS011;1336;48.692;9.144;2022-10-12T07:46:30;25.40;;;22.65;;
2652;SDS011;1336;48.692;9.144;2022-10-12T07:47:21;29.93;;;25.20;;
2652;SDS011;1336;48.692;9.144;2022-10-12T07:48:12;26.70;;;23.05;;
2652;SDS011;1336;48.692;9.144;2022-10-12T07:49:03;27.60;;;22.90;;
2652;SDS011;1336;48.692;9.144;2022-10-12T07:49:55;24.73;;;21.92;;
2652;SDS011;1336;48.692;9.144;2022-10-12T07:50:47;25.13;;;22.43;;
2652;SDS011;1336;48.692;9.144;2022-10-12T07:51:39;26.73;;;23.25;;
2652;SDS011;1336;48.692;9.144;2022-10-12T07:52:31;24.63;;;22.02;;
2652;SDS011;1336;48.692;9.144;2022-10-12T07:53:23;29.13;;;25.10;;
2652;SDS011;1336;48.692;9.144;2022-10-12T07:54:14;31.27;;;25.77;;
2652;SDS011;1336;48.692;9.144;2022-10-12T07:55:06;34.90;;;26.40;;
2652;SDS011;1336;48.692;9.144;2022-10-12T07:55:58;27.30;;;23.58;;
2652;SDS011;1336;48.692;9.144;2022-10-12T07:56:50;26.45;;;23.58;;
2652;SDS011;1336;48.692;9.144;2022-10-12T07:57:41;32.50;;;26.07;;
2652;SDS011;1336;48.692;9.144;2022-10-12T07:58:33;33.47;;;26.02;;
2652;SDS011;1336;48.692;9.144;2022-10-12T07:59:24;28.13;;;24.80;;
2652;SDS011;1336;48.692;9.144;2022-10-12T08:00:16;29.00;;;24.63;;
2652;SDS011;1336;48.692;9.144;2022-10-12T08:01:09;27.42;;;24.55;;
2652;SDS011;1336;48.692;9.144;2022-10-12T08:02:01;28.42;;;22.77;;
2652;SDS011;1336;48.692;9.144;2022-10-12T08:02:52;26.07;;;23.00;;
2652;SDS011;1336;48.692;9.144;2022-10-12T08:03:44;26.83;;;23.52;;
2652;SDS011;1336;48.692;9.144;2022-10-12T08:04:34;26.70;;;23.43;;
2652;SDS011;1336;48.692;9.144;2022-10-12T08:05:26;32.58;;;22.88;;
2652;SDS011;1336;48.692;9.144;2022-10-12T08:06:19;28.77;;;24.30;;
2652;SDS011;1336;48.692;9.144;2022-10-12T08:07:12;30.92;;;24.52;;
2652;SDS011;1336;48.692;9.144;2022-10-12T08:08:03;27.50;;;23.43;;
2652;SDS011;1336;48.692;9.144;2022-10-12T08:08:57;30.20;;;25.20;;
2652;SDS011;1336;48.692;9.144;2022-10-12T08:09:48;28.17;;;23.77;;
2652;SDS011;1336;48.692;9.144;2022-10-12T08:10:40;26.30;;;23.45;;
2652;SDS011;1336;48.692;9.144;2022-10-12T08:11:31;30.37;;;24.80;;
2652;SDS011;1336;48.692;9.144;2022-10-12T08:12:27;27.55;;;23.58;;
2652;SDS011;1336;48.692;9.144;2022-10-12T08:13:18;32.17;;;27.40;;
2652;SDS011;1336;48.692;9.144;2022-10-12T08:14:11;27.23;;;24.30;;
2652;SDS011;1336;48.692;9.144;2022-10-12T08:15:02;30.42;;;25.08;;
2652;SDS011;1336;48.692;9.144;2022-10-12T08:15:54;30.08;;;23.52;;
2652;SDS011;1336;48.692;9.144;2022-10-12T08:16:45;32.60;;;24.97;;
2652;SDS011;1336;48.692;9.144;2022-10-12T08:17:37;30.10;;;25.02;;
2652;SDS011;1336;48.692;9.144;2022-10-12T08:18:28;28.27;;;25.27;;
2652;SDS011;1336;48.692;9.144;2022-10-12T08:19:20;27.55;;;24.30;;
2652;SDS011;1336;48.692;9.144;2022-10-12T08:20:10;27.27;;;23.70;;
2652;SDS011;1336;48.692;9.144;2022-10-12T08:21:02;27.25;;;24.52;;
2652;SDS011;1336;48.692;9.144;2022-10-12T08:21:55;31.02;;;22.45;;
2652;SDS011;1336;48.692;9.144;2022-10-12T08:22:46;24.52;;;21.92;;
2652;SDS011;1336;48.692;9.144;2022-10-12T08:23:37;25.07;;;22.00;;
2652;SDS011;1336;48.692;9.144;2022-10-12T08:24:29;29.27;;;22.08;;
2652;SDS011;1336;48.692;9.144;2022-10-12T08:25:20;24.13;;;21.40;;
2652;SDS011;1336;48.692;9.144;2022-10-12T08:26:12;23.60;;;20.95;;
2652;SDS011;1336;48.692;9.144;2022-10-12T08:27:04;26.58;;;23.27;;
2652;SDS011;1336;48.692;9.144;2022-10-12T08:27:56;24.85;;;21.83;;
2652;SDS011;1336;48.692;9.144;2022-10-12T08:28:48;27.55;;;22.20;;
2652;SDS011;1336;48.692;9.144;2022-10-12T08:29:39;26.43;;;22.70;;
2652;SDS011;1336;48.692;9.144;2022-10-12T08:30:31;24.90;;;22.27;;
2652;SDS011;1336;48.692;9.144;2022-10-12T08:31:22;24.95;;;21.27;;
2652;SDS011;1336;48.692;9.144;2022-10-12T08:32:14;28.25;;;22.05;;
2652;SDS011;1336;48.692;9.144;2022-10-12T08:33:04;27.07;;;22.03;;
2652;SDS011;1336;48.692;9.144;2022-10-12T08:33:56;25.15;;;22.45;;
2652;SDS011;1336;48.692;9.144;2022-10-12T08:34:47;25.33;;;20.80;;
2652;SDS011;1336;48.692;9.144;2022-10-12T08:35:39;27.55;;;21.80;;
2652;SDS011;1336;48.692;9.144;2022-10-12T08:36:30;26.40;;;21.45;;
2652;SDS011;1336;48.692;9.144;2022-10-12T08:37:23;24.77;;;21.23;;
2652;SDS011;1336;48.692;9.144;2022-10-12T08:38:15;26.75;;;21.48;;
2652;SDS011;1336;48.692;9.144;2022-10-12T08:39:07;23.50;;;21.00;;
2652;SDS011;1336;48.692;9.144;2022-10-12T08:39:57;23.80;;;20.30;;
2652;SDS011;1336;48.692;9.144;2022-10-12T08:40:51;24.60;;;21.35;;
2652;SDS011;1336;48.692;9.144;2022-10-12T08:41:47;24.70;;;20.92;;
2652;SDS011;1336;48.692;9.144;2022-10-12T08:42:49;23.25;;;20.23;;
2652;SDS011;1336;48.692;9.144;2022-10-12T08:45:12;26.83;;;21.38;;
2652;SDS011;1336;48.692;9.144;2022-10-12T08:46:17;22.77;;;19.92;;
2652;SDS011;1336;48.692;9.144;2022-10-12T08:47:10;21.98;;;19.45;;
2652;SDS011;1336;48.692;9.144;2022-10-12T08:48:06;23.15;;;19.67;;
2652;SDS011;1336;48.692;9.144;2022-10-12T08:49:03;23.83;;;20.48;;
2652;SDS011;1336;48.692;9.144;2022-10-12T08:49:58;23.13;;;19.35;;
2652;SDS011;1336;48.692;9.144;2022-10-12T08:50:51;23.38;;;20.27;;
2652;SDS011;1336;48.692;9.144;2022-10-12T08:51:46;24.38;;;19.63;;
2652;SDS011;1336;48.692;9.144;2022-10-12T08:52:41;27.08;;;19.90;;
2652;SDS011;1336;48.692;9.144;2022-10-12T08:53:41;24.00;;;20.60;;
2652;SDS011;1336;48.692;9.144;2022-10-12T08:54:37;23.58;;;20.80;;
2652;SDS011;1336;48.692;9.144;2022-10-12T08:55:33;23.05;;;20.08;;
2652;SDS011;1336;48.692;9.144;2022-10-12T08:56:28;23.70;;;19.85;;
2652;SDS011;1336;48.692;9.144;2022-10-12T08:57:21;28.30;;;20.90;;
2652;SDS011;1336;48.692;9.144;2022-10-12T08:58:13;24.37;;;20.30;;
2652;SDS011;1336;48.692;9.144;2022-10-12T08:59:07;26.88;;;20.73;;
2652;SDS011;1336;48.692;9.144;2022-10-12T09:00:02;25.05;;;20.38;;
2652;SDS011;1336;48.692;9.144;2022-10-12T09:00:56;24.00;;;21.33;;
2652;SDS011;1336;48.692;9.144;2022-10-12T09:02:04;26.73;;;22.40;;
2652;SDS011;1336;48.692;9.144;2022-10-12T09:03:11;27.50;;;21.02;;
2652;SDS011;1336;48.692;9.144;2022-10-12T09:04:14;26.05;;;22.38;;
2652;SDS011;1336;48.692;9.144;2022-10-12T09:05:11;25.23;;;22.48;;
2652;SDS011;1336;48.692;9.144;2022-10-12T09:06:11;26.33;;;23.48;;
2652;SDS011;1336;48.692;9.144;2022-10-12T09:07:09;24.27;;;21.67;;
2652;SDS011;1336;48.692;9.144;2022-10-12T09:08:06;25.75;;;21.63;;
2652;SDS011;1336;48.692;9.144;2022-10-12T09:09:04;25.55;;;22.25;;
2652;SDS011;1336;48.692;9.144;2022-10-12T09:10:09;24.70;;;22.08;;
2652;SDS011;1336;48.692;9.144;2022-10-12T09:11:16;25.73;;;22.38;;
2652;SDS011;1336;48.692;9.144;2022-10-12T09:12:30;26.27;;;23.30;;
2652;SDS011;1336;48.692;9.144;2022-10-12T09:13:33;24.67;;;22.15;;
2652;SDS011;1336;48.692;9.144;2022-10-12T09:14:31;24.42;;;21.20;;
2652;SDS011;1336;48.692;9.144;2022-10-12T09:15:25;26.25;;;21.95;;
2652;SDS011;1336;48.692;9.144;2022-10-12T09:16:20;25.00;;;22.30;;
2652;SDS011;1336;48.692;9.144;2022-10-12T09:17:20;25.35;;;21.73;;
2652;SDS011;1336;48.692;9.144;2022-10-12T09:18:16;26.90;;;23.23;;
2652;SDS011;1336;48.692;9.144;2022-10-12T09:19:12;23.77;;;21.40;;
2652;SDS011;1336;48.692;9.144;2022-10-12T09:20:09;22.67;;;20.38;;
2652;SDS011;1336;48.692;9.144;2022-10-12T09:21:09;24.30;;;21.48;;
2652;SDS011;1336;48.692;9.144;2022-10-12T09:22:07;29.85;;;21.70;;
2652;SDS011;1336;48.692;9.144;2022-10-12T09:23:22;24.08;;;20.67;;
2652;SDS011;1336;48.692;9.144;2022-10-12T09:24:16;25.17;;;20.30;;
2652;SDS011;1336;48.692;9.144;2022-10-12T09:25:11;25.00;;;18.25;;
2652;SDS011;1336;48.692;9.144;2022-10-12T09:26:08;24.55;;;17.55;;
2652;SDS011;1336;48.692;9.144;2022-10-12T09:27:17;23.75;;;16.92;;
2652;SDS011;1336;48.692;9.144;2022-10-12T09:28:12;23.55;;;17.00;;
2652;SDS011;1336;48.692;9.144;2022-10-12T09:29:13;20.42;;;16.08;;
2652;SDS011;1336;48.692;9.144;2022-10-12T09:30:14;20.42;;;17.15;;
2652;SDS011;1336;48.692;9.144;2022-10-12T09:31:11;21.52;;;17.50;;
2652;SDS011;1336;48.692;9.144;2022-10-12T09:33:33;16.00;;;14.30;;
2652;SDS011;1336;48.692;9.144;2022-10-12T09:34:30;18.75;;;14.63;;
2652;SDS011;1336;48.692;9.144;2022-10-12T09:35:21;17.67;;;15.03;;
2652;SDS011;1336;48.692;9.144;2022-10-12T09:36:14;15.55;;;13.90;;
2652;SDS011;1336;48.692;9.144;2022-10-12T09:37:09;16.63;;;14.57;;
2652;SDS011;1336;48.692;9.144;2022-10-12T09:38:08;22.13;;;14.80;;
2652;SDS011;1336;48.692;9.144;2022-10-12T09:39:02;18.20;;;15.10;;
2652;SDS011;1336;48.692;9.144;2022-10-12T09:39:56;19.15;;;15.00;;
2652;SDS011;1336;48.692;9.144;2022-10-12T09:40:47;21.25;;;15.25;;
2652;SDS011;1336;48.692;9.144;2022-10-12T09:41:40;21.20;;;15.10;;
2652;SDS011;1336;48.692;9.144;2022-10-12T09:42:32;18.40;;;15.00;;
2652;SDS011;1336;48.692;9.144;2022-10-12T09:43:24;17.38;;;15.13;;
2652;SDS011;1336;48.692;9.144;2022-10-12T09:44:25;17.10;;;14.57;;
2652;SDS011;1336;48.692;9.144;2022-10-12T09:45:20;19.88;;;15.40;;
2652;SDS011;1336;48.692;9.144;2022-10-12T09:46:12;24.92;;;17.30;;
2652;SDS011;1336;48.692;9.144;2022-10-12T09:47:06;19.50;;;16.02;;
2652;SDS011;1336;48.692;9.144;2022-10-12T09:48:15;17.30;;;13.80;;
2652;SDS011;1336;48.692;9.144;2022-10-12T09:49:07;17.33;;;14.00;;
2652;SDS011;1336;48.692;9.144;2022-10-12T09:49:59;18.65;;;16.10;;
2652;SDS011;1336;48.692;9.144;2022-10-12T09:50:53;19.83;;;16.63;;
2652;SDS011;1336;48.692;9.144;2022-10-12T09:51:49;17.70;;;15.45;;
2652;SDS011;1336;48.692;9.144;2022-10-12T09:52:48;20.58;;;16.38;;
2652;SDS011;1336;48.692;9.144;2022-10-12T09:53:45;20.30;;;15.85;;
2652;SDS011;1336;48.692;9.144;2022-10-12T09:54:40;18.00;;;15.43;;
2652;SDS011;1336;48.692;9.144;2022-10-12T09:55:37;17.75;;;16.00;;
2652;SDS011;1336;48.692;9.144;2022-10-12T09:56:28;18.87;;;15.57;;
2652;SDS011;1336;48.692;9.144;2022-10-12T09:57:25;17.33;;;15.52;;
2652;SDS011;1336;48.692;9.144;2022-10-12T09:58:19;19.15;;;15.77;;
2652;SDS011;1336;48.692;9.144;2022-10-12T09:59:17;16.48;;;14.30;;
2652;SDS011;1336;48.692;9.144;2022-10-12T10:00:22;16.50;;;14.63;;
2652;SDS011;1336;48.692;9.144;2022-10-12T10:01:17;16.60;;;14.02;;
2652;SDS011;1336;48.692;9.144;2022-10-12T10:02:13;18.10;;;15.18;;
2652;SDS011;1336;48.692;9.144;2022-10-12T10:03:08;18.83;;;14.18;;
2652;SDS011;1336;48.692;9.144;2022-10-12T10:04:13;18.75;;;15.00;;
2652;SDS011;1336;48.692;9.144;2022-10-12T10:05:13;17.40;;;13.75;;
2652;SDS011;1336;48.692;9.144;2022-10-12T10:06:12;17.45;;;13.32;;
2652;SDS011;1336;48.692;9.144;2022-10-12T10:07:12;16.25;;;14.45;;
2652;SDS011;1336;48.692;9.144;2022-10-12T10:08:16;19.02;;;14.60;;
2652;SDS011;1336;48.692;9.144;2022-10-12T10:09:28;15.77;;;13.55;;
2652;SDS011;1336;48.692;9.144;2022-10-12T10:10:23;18.92;;;15.32;;
2652;SDS011;1336;48.692;9.144;2022-10-12T10:11:17;15.18;;;13.55;;
2652;SDS011;1336;48.692;9.144;2022-10-12T10:12:12;15.95;;;13.55;;
2652;SDS011;1336;48.692;9.144;2022-10-12T10:13:11;17.15;;;14.73;;
2652;SDS011;1336;48.692;9.144;2022-10-12T10:14:04;20.75;;;14.88;;
2652;SDS011;1336;48.692;9.144;2022-10-12T10:15:02;17.73;;;15.50;;
2652;SDS011;1336;48.692;9.144;2022-10-12T10:16:00;18.10;;;15.65;;
2652;SDS011;1336;48.692;9.144;2022-10-12T10:16:54;18.30;;;14.85;;
2652;SDS011;1336;48.692;9.144;2022-10-12T10:17:49;17.85;;;15.95;;
2652;SDS011;1336;48.692;9.144;2022-10-12T10:18:43;20.10;;;14.95;;
2652;SDS011;1336;48.692;9.144;2022-10-12T10:19:37;16.45;;;14.25;;
2652;SDS011;1336;48.692;9.144;2022-10-12T10:20:30;16.48;;;14.50;;
2652;SDS011;1336;48.692;9.144;2022-10-12T10:21:23;16.13;;;14.13;;
2652;SDS011;1336;48.692;9.144;2022-10-12T10:22:19;18.73;;;15.05;;
2652;SDS011;1336;48.692;9.144;2022-10-12T10:23:20;17.38;;;15.50;;
2652;SDS011;1336;48.692;9.144;2022-10-12T10:24:21;18.65;;;15.10;;